Time;durP1;ratioP1;P1;durP2;ratioP2;P2;SDS_P1;SDS_P2;PMS_P1;PMS_P2;Temp;Humidity;BMP_temperature;BMP_pressure;BME280_temperature;BME280_humidity;BME280_pressure;Samples;Min_cycle;Max_cycle;Signal;HPM_P1;HPM_P2
2022/02/22 00:00:20;;;;;;;4.90;3.50;;;;;;;2.48;65.67;97717.46;440717;1271;142681;-66
2022/02/22 00:10:27;;;;;;;5.10;3.30;;;;;;;2.55;65.61;97732.02;437420;1273;143252;-63
2022/02/22 00:20:33;;;;;;;3.50;1.90;;;;;;;2.66;65.96;97739.36;436270;1271;141720;-65
2022/02/22 00:30:39;;;;;;;5.20;2.10;;;;;;;2.82;66.74;97750.80;446562;1271;142213;-69
2022/02/22 00:40:45;;;;;;;3.50;2.10;;;;;;;2.95;67.17;97772.33;446920;1271;141664;-65
2022/02/22 00:50:51;;;;;;;3.80;1.70;;;;;;;2.94;68.37;97785.30;431817;1271;140900;-65
2022/02/22 01:00:57;;;;;;;5.30;2.00;;;;;;;2.84;69.42;97809.61;431192;1271;142789;-68
2022/02/22 01:11:04;;;;;;;5.80;2.50;;;;;;;2.74;70.10;97823.19;446853;1273;142219;-71
2022/02/22 01:21:09;;;;;;;3.50;2.10;;;;;;;2.64;70.81;97830.17;446591;1271;142119;-64
2022/02/22 01:31:15;;;;;;;5.70;2.70;;;;;;;2.56;71.27;97849.64;447215;1270;141310;-68
2022/02/22 01:41:22;;;;;;;4.50;2.00;;;;;;;2.51;71.77;97866.14;447365;1270;143436;-65
2022/02/22 01:51:27;;;;;;;2.90;1.80;;;;;;;2.43;72.42;97884.95;446565;1270;141258;-66
2022/02/22 02:01:33;;;;;;;4.30;2.60;;;;;;;2.37;72.74;97899.73;447328;1270;141751;-64
2022/02/22 02:11:47;;;;;;;3.20;1.90;;;;;;;2.33;72.91;97913.98;447416;1270;141811;-63
2022/02/22 02:21:58;;;;;;;2.60;2.10;;;;;;;2.29;72.76;97922.84;444792;1271;141064;-64
2022/02/22 02:32:05;;;;;;;3.40;2.10;;;;;;;2.31;72.82;97942.27;433765;1271;207510;-64
2022/02/22 02:42:11;;;;;;;2.70;1.50;;;;;;;2.28;72.30;97959.66;446562;1269;142445;-64
2022/02/22 02:52:17;;;;;;;2.70;2.00;;;;;;;2.31;72.07;97981.99;447304;1270;141940;-64
2022/02/22 03:02:22;;;;;;;1.60;1.40;;;;;;;2.28;71.78;97993.05;447343;1270;142532;-64
2022/02/22 03:12:28;;;;;;;2.00;1.50;;;;;;;2.20;71.69;97999.16;446565;1270;141517;-65
2022/02/22 03:22:34;;;;;;;1.50;1.10;;;;;;;2.07;71.98;98008.45;439281;1271;142055;-64
2022/02/22 03:32:42;;;;;;;1.90;1.50;;;;;;;1.95;72.46;98018.63;432379;1269;141244;-64
2022/02/22 03:42:49;;;;;;;2.50;1.00;;;;;;;1.86;72.77;98037.56;432222;1271;142161;-64
2022/02/22 03:52:55;;;;;;;2.20;1.70;;;;;;;1.79;73.09;98049.33;430320;1270;140653;-64
2022/02/22 04:03:03;;;;;;;1.50;1.20;;;;;;;1.75;73.39;98068.01;429624;1270;144153;-63
2022/02/22 04:13:09;;;;;;;2.20;2.00;;;;;;;1.74;73.74;98080.48;444274;1270;141404;-65
2022/02/22 04:23:15;;;;;;;5.80;1.80;;;;;;;1.73;73.99;98101.39;447385;1269;143178;-65
2022/02/22 04:33:22;;;;;;;3.40;2.20;;;;;;;1.79;74.31;98110.20;446634;1270;142364;-65
2022/02/22 04:43:30;;;;;;;3.60;2.00;;;;;;;1.82;74.48;98120.76;444819;1270;141767;-66
2022/02/22 04:53:36;;;;;;;2.20;1.90;;;;;;;1.86;74.93;98135.55;442139;1269;143042;-64
2022/02/22 05:03:41;;;;;;;5.60;3.40;;;;;;;1.86;75.56;98150.61;435355;1270;142424;-64
2022/02/22 05:13:47;;;;;;;4.40;3.70;;;;;;;1.76;75.98;98166.09;447352;1270;143893;-65
2022/02/22 05:23:53;;;;;;;3.90;2.50;;;;;;;1.63;76.60;98184.00;447325;1270;141550;-65
2022/02/22 05:34:00;;;;;;;6.20;2.70;;;;;;;1.60;76.99;98204.82;447184;1271;142046;-65
2022/02/22 05:44:06;;;;;;;6.10;2.70;;;;;;;1.65;77.33;98214.80;447349;1270;141807;-65
2022/02/22 05:54:12;;;;;;;5.40;3.60;;;;;;;1.71;77.50;98234.70;446583;1270;142510;-65
2022/02/22 06:04:18;;;;;;;3.30;3.00;;;;;;;1.75;78.05;98252.95;447309;1270;199101;-64
2022/02/22 06:14:24;;;;;;;7.80;4.10;;;;;;;1.82;78.25;98270.54;436131;1270;142455;-64
2022/02/22 06:24:30;;;;;;;5.80;3.40;;;;;;;1.90;78.28;98288.48;428957;1270;144033;-64
2022/02/22 06:34:36;;;;;;;4.30;3.40;;;;;;;1.96;78.56;98308.89;437644;1270;142451;-64
2022/02/22 06:44:41;;;;;;;7.10;3.70;;;;;;;2.07;78.35;98331.31;447250;1270;141396;-64
2022/02/22 06:54:47;;;;;;;5.20;3.80;;;;;;;2.20;78.21;98347.75;446459;1269;143652;-64
2022/02/22 07:04:53;;;;;;;8.10;3.50;;;;;;;2.35;78.47;98362.59;447134;1271;143100;-64
2022/02/22 07:14:59;;;;;;;6.70;4.00;;;;;;;2.44;78.62;98380.63;446696;1270;144958;-64
2022/02/22 07:25:06;;;;;;;5.30;3.70;;;;;;;2.53;78.67;98386.36;447202;1270;141756;-65
2022/02/22 07:35:12;;;;;;;6.00;3.70;;;;;;;2.55;78.82;98398.04;447319;1270;141051;-64
2022/02/22 07:45:20;;;;;;;8.00;4.40;;;;;;;2.65;78.84;98411.19;446539;1270;162851;-65
2022/02/22 07:55:26;;;;;;;6.40;3.70;;;;;;;2.78;78.77;98428.16;443502;1268;142316;-65
2022/02/22 08:05:32;;;;;;;5.60;3.40;;;;;;;4.38;79.47;98452.48;447355;1270;141794;-65
2022/02/22 08:15:38;;;;;;;4.20;2.90;;;;;;;8.61;74.20;98454.22;446420;1270;145054;-63
2022/02/22 08:25:44;;;;;;;4.50;3.40;;;;;;;12.69;68.97;98458.25;447291;1270;142547;-69
2022/02/22 08:35:50;;;;;;;3.80;1.80;;;;;;;14.74;62.53;98468.30;435308;1268;141297;-65
2022/02/22 08:45:56;;;;;;;6.20;2.80;;;;;;;11.73;61.51;98491.98;446585;1270;141662;-66
2022/02/22 08:56:03;;;;;;;4.80;2.90;;;;;;;10.28;62.10;98517.98;447379;1271;141453;-69
2022/02/22 09:06:09;;;;;;;4.70;2.40;;;;;;;8.93;62.47;98537.38;446629;1270;141419;-69
2022/02/22 09:16:15;;;;;;;7.60;2.50;;;;;;;7.26;63.93;98546.27;443883;1271;141497;-64
2022/02/22 09:26:21;;;;;;;4.70;2.40;;;;;;;6.63;65.02;98563.59;438143;1270;143963;-62
2022/02/22 09:36:27;;;;;;;6.60;2.90;;;;;;;7.00;65.41;98576.91;446651;1271;142538;-69
2022/02/22 09:46:33;;;;;;;3.50;2.20;;;;;;;7.25;64.55;98593.54;444816;1270;141830;-60
2022/02/22 09:56:44;;;;;;;6.30;2.80;;;;;;;6.46;64.97;98605.55;445109;1270;141210;-64
2022/02/22 10:06:52;;;;;;;5.90;3.20;;;;;;;5.94;65.72;98618.04;446499;1271;141159;-66
2022/02/22 10:16:59;;;;;;;5.00;2.90;;;;;;;5.87;66.25;98630.63;447265;1271;142846;-66
2022/02/22 10:27:08;;;;;;;3.40;2.80;;;;;;;5.91;66.87;98647.80;446571;1270;141725;-66
2022/02/22 10:37:14;;;;;;;6.60;3.40;;;;;;;6.27;66.56;98649.30;447375;1270;142154;-66
2022/02/22 10:47:21;;;;;;;5.10;2.30;;;;;;;6.03;66.44;98655.90;447430;1270;141861;-64
2022/02/22 10:57:28;;;;;;;5.00;2.30;;;;;;;5.73;66.73;98658.89;446642;1270;142056;-65
2022/02/22 11:07:34;;;;;;;6.20;3.50;;;;;;;5.76;66.97;98679.36;445811;1271;142147;-69
2022/02/22 11:17:52;;;;;;;5.90;3.60;;;;;;;5.57;67.08;98692.47;446909;1272;141196;-65
2022/02/22 11:28:06;;;;;;;3.50;2.40;;;;;;;5.35;67.81;98705.86;446643;1270;141196;-71
2022/02/22 11:38:17;;;;;;;3.70;2.40;;;;;;;5.47;68.31;98706.24;447365;1271;142367;-67
2022/02/22 11:48:24;;;;;;;3.30;3.00;;;;;;;5.76;68.24;98717.77;446590;1271;143235;-63
2022/02/22 11:58:36;;;;;;;4.60;2.70;;;;;;;5.87;67.44;98718.17;447406;1270;142161;-69
2022/02/22 12:08:51;;;;;;;8.10;2.40;;;;;;;5.77;67.50;98738.57;447390;1271;142097;-72
2022/02/22 12:18:59;;;;;;;4.00;2.20;;;;;;;5.82;67.46;98737.59;443741;1271;142576;-72
2022/02/22 12:29:08;;;;;;;8.90;3.00;;;;;;;5.94;67.26;98749.24;442186;1271;142181;-64
2022/02/22 12:39:15;;;;;;;5.50;3.10;;;;;;;5.59;68.07;98768.55;446223;1271;141453;-72
2022/02/22 12:49:23;;;;;;;8.40;2.80;;;;;;;5.63;68.35;98782.02;447344;1270;141206;-72
2022/02/22 12:59:33;;;;;;;8.40;2.80;;;;;;;5.91;68.27;98795.60;447202;1271;142440;-72
2022/02/22 13:09:40;;;;;;;9.50;4.40;;;;;;;6.03;68.25;98807.92;443474;1272;142840;-77
2022/02/22 13:19:53;;;;;;;11.40;3.60;;;;;;;5.41;68.61;98834.14;442379;1271;142509;-67
2022/02/22 13:30:00;;;;;;;7.80;3.10;;;;;;;4.58;69.91;98864.96;437805;1271;141544;-79
2022/02/22 13:40:18;;;;;;;8.90;3.10;;;;;;;4.06;71.71;98873.79;447098;1271;197032;-63
2022/02/22 13:50:25;;;;;;;9.90;3.70;;;;;;;4.14;72.34;98891.25;447108;1271;142798;-65
2022/02/22 14:00:42;;;;;;;10.70;3.80;;;;;;;3.96;72.96;98909.23;446657;1271;142051;-66
2022/02/22 14:10:49;;;;;;;8.10;2.70;;;;;;;4.10;73.20;98924.53;445674;1271;141291;-75
2022/02/22 14:20:55;;;;;;;13.30;3.90;;;;;;;4.13;73.30;98941.21;434806;1271;142053;-71
2022/02/22 14:31:01;;;;;;;8.10;2.80;;;;;;;3.86;73.16;98952.46;435714;1270;212668;-67
2022/02/22 14:41:07;;;;;;;10.30;4.40;;;;;;;3.72;73.57;98959.73;444048;1271;198493;-62
2022/02/22 14:51:14;;;;;;;8.60;3.30;;;;;;;3.84;73.78;98970.27;446023;1273;141822;-63
2022/02/22 15:01:21;;;;;;;12.20;4.40;;;;;;;3.95;73.20;98977.73;444303;1271;142210;-62
2022/02/22 15:11:27;;;;;;;10.00;3.60;;;;;;;3.88;72.74;98984.25;436012;1270;142539;-61
2022/02/22 15:21:33;;;;;;;11.20;3.50;;;;;;;3.70;72.51;98989.91;436954;1271;141435;-61
2022/02/22 15:31:53;;;;;;;7.00;2.90;;;;;;;3.51;72.35;98998.91;447004;1271;141556;-62
2022/02/22 15:41:59;;;;;;;12.20;4.20;;;;;;;3.36;72.66;99009.59;446489;1272;142197;-63
2022/02/22 15:52:05;;;;;;;8.90;4.10;;;;;;;3.20;72.96;99014.95;446879;1271;207953;-62
2022/02/22 16:02:12;;;;;;;8.50;4.30;;;;;;;3.24;73.21;99025.51;446613;1272;144890;-63
2022/02/22 16:12:19;;;;;;;10.20;4.30;;;;;;;3.18;73.55;99032.48;445945;1273;142207;-63
2022/02/22 16:22:25;;;;;;;9.30;3.90;;;;;;;3.09;73.56;99042.41;446851;1273;142136;-63
2022/02/22 16:32:32;;;;;;;11.50;4.40;;;;;;;2.78;73.58;99054.19;446840;1273;141804;-63
2022/02/22 16:42:38;;;;;;;12.40;6.40;;;;;;;2.55;74.14;99071.02;446140;1272;143158;-63
2022/02/22 16:52:44;;;;;;;12.30;4.80;;;;;;;2.32;74.52;99093.65;443024;1273;142867;-62
2022/02/22 17:02:50;;;;;;;14.60;5.80;;;;;;;2.15;74.92;99103.96;434505;1273;142615;-63
2022/02/22 17:12:55;;;;;;;13.20;5.30;;;;;;;2.04;75.48;99114.03;446103;1271;143364;-63
2022/02/22 17:23:01;;;;;;;9.50;4.50;;;;;;;1.99;75.72;99129.20;447062;1271;152636;-63
2022/02/22 17:33:07;;;;;;;12.00;5.30;;;;;;;1.97;75.90;99133.45;445927;1272;141609;-62
2022/02/22 17:43:14;;;;;;;9.80;4.70;;;;;;;1.94;76.06;99134.74;441168;1272;142450;-62
2022/02/22 17:53:20;;;;;;;12.50;5.60;;;;;;;1.79;76.39;99134.77;447136;1271;143714;-63
2022/02/22 18:03:26;;;;;;;6.60;4.80;;;;;;;1.62;76.67;99141.73;437867;1271;142616;-63
2022/02/22 18:13:33;;;;;;;8.60;5.10;;;;;;;1.46;76.94;99153.46;437363;1271;142775;-63
2022/02/22 18:23:43;;;;;;;9.40;4.50;;;;;;;1.33;77.31;99152.86;446766;1271;141484;-63
2022/02/22 18:33:49;;;;;;;10.60;5.30;;;;;;;1.18;77.45;99156.79;446046;1272;143386;-62
2022/02/22 18:43:55;;;;;;;11.50;5.90;;;;;;;0.93;77.77;99160.36;447005;1271;142183;-63
2022/02/22 18:54:01;;;;;;;11.90;6.10;;;;;;;0.76;78.10;99170.00;445992;1272;163553;-65
2022/02/22 19:04:12;;;;;;;9.40;4.00;;;;;;;0.66;78.44;99178.40;447177;1271;143252;-71
2022/02/22 19:14:18;;;;;;;6.20;4.30;;;;;;;0.75;78.69;99191.75;436796;1273;142950;-68
2022/02/22 19:24:23;;;;;;;10.30;4.50;;;;;;;0.92;78.77;99191.92;437921;1271;141898;-70
2022/02/22 19:34:30;;;;;;;10.20;4.60;;;;;;;0.93;78.56;99190.67;432473;1272;144515;-70
2022/02/22 19:44:38;;;;;;;13.90;5.80;;;;;;;0.77;78.74;99197.70;446730;1272;142521;-71
2022/02/22 19:54:48;;;;;;;13.70;7.30;;;;;;;0.58;78.82;99193.95;434343;1271;142332;-71
2022/02/22 20:04:56;;;;;;;15.80;7.90;;;;;;;0.38;79.14;99191.60;443298;1271;143005;-73
2022/02/22 20:15:02;;;;;;;10.00;6.30;;;;;;;0.26;79.55;99194.02;436741;1273;143280;-73
2022/02/22 20:25:11;;;;;;;21.40;10.60;;;;;;;0.40;79.49;99194.81;437784;1271;142909;-73
2022/02/22 20:35:20;;;;;;;17.50;10.10;;;;;;;0.57;79.87;99195.18;439983;1271;142345;-70
2022/02/22 20:45:26;;;;;;;15.20;9.90;;;;;;;0.60;79.20;99190.27;441739;1271;142297;-72
2022/02/22 20:55:33;;;;;;;17.50;10.30;;;;;;;0.36;79.37;99193.38;445104;1271;142182;-74
2022/02/22 21:05:39;;;;;;;19.50;12.10;;;;;;;0.19;79.84;99190.05;435631;1271;142684;-71
2022/02/22 21:15:45;;;;;;;30.70;16.00;;;;;;;0.09;80.13;99183.78;433429;1271;141947;-72
2022/02/22 21:25:55;;;;;;;26.50;13.80;;;;;;;0.08;80.56;99187.09;446699;1269;144725;-74
2022/02/22 21:36:01;;;;;;;23.90;11.80;;;;;;;0.33;80.69;99190.37;435777;1271;164617;-67
2022/02/22 21:46:08;;;;;;;22.30;10.40;;;;;;;0.46;80.77;99187.59;446845;1271;143593;-70
2022/02/22 21:56:15;;;;;;;23.90;11.10;;;;;;;0.55;80.61;99176.48;447218;1271;143094;-71
2022/02/22 22:06:19;;;;;;;;;;;;;;;0.41;80.57;99175.50;446340;1271;141432;-73
2022/02/22 22:16:25;;;;;;;14.80;8.40;;;;;;;0.11;80.59;99175.30;440774;1271;128239;-70
2022/02/22 22:26:31;;;;;;;18.80;9.00;;;;;;;-0.05;81.00;99169.20;441447;1271;141446;-73
2022/02/22 22:36:37;;;;;;;16.70;8.60;;;;;;;-0.19;80.93;99154.41;441416;1271;198964;-75
2022/02/22 22:46:43;;;;;;;15.90;8.30;;;;;;;-0.30;81.21;99145.27;441934;1271;141486;-68
2022/02/22 22:56:49;;;;;;;17.20;9.90;;;;;;;-0.35;81.37;99128.55;443551;1271;142009;-69
2022/02/22 23:17:19;;;;;;;17.70;8.10;;;;;;;-0.01;81.10;99103.16;435691;1271;141961;-74
2022/02/22 23:27:25;;;;;;;18.60;7.80;;;;;;;0.14;80.84;99097.23;430215;1271;142809;-71
2022/02/22 23:37:31;;;;;;;20.40;8.20;;;;;;;0.20;80.50;99091.73;447283;1271;141729;-70
2022/02/22 23:47:37;;;;;;;14.40;7.20;;;;;;;0.25;80.22;99079.20;446105;1271;141856;-64
2022/02/22 23:57:43;;;;;;;14.50;8.20;;;;;;;0.26;80.20;99055.91;445557;1271;141792;-70
